Nearby METAR Reports

 

KIND - Indianapolis, Indiana, USA
Distance from station: SW 6mi, 9km
Updated: May 26 2020 11:54pm
Partly Cloudy
Partly Cloudy
 Wind from S
Wind: S 6 mph , 9 km/h
Temperature: 73°F , 23°C
Dew Point: 64°F , 18°C
Humidity: 74%
Barometer: 29.99 inHg , 1015.6 hPa
Clouds: Partly Cloudy
Visibility: 10 miles , 16 km
Cloud details: Few Clouds 14000 ft
Few Clouds 20000 ft
Partly Cloudy 25000 ft
2020/05/27 03:54 KIND 270354Z 17005KT 10SM FEW140 FEW200 SCT250 23/18 A2999 RMK AO2 SLP148 T02280183 $
KEYE - Indianapolis, Indiana, USA
Distance from station: NW 5mi, 8km
Updated: May 26 2020 11:53pm
Clear
Clear
 Wind from calm
Wind: Calm
Temperature: 73°F , 23°C
Dew Point: 64°F , 18°C
Humidity: 74%
Barometer: 29.99 inHg , 1015.6 hPa
Clouds: Clear
Visibility: 10 miles , 16 km
2020/05/27 03:53 KEYE 270353Z AUTO 00000KT 10SM CLR 23/18 A2999 RMK AO2 SLP149 T02280183
 
KTYQ - Indianapolis Exc, Indiana, USA
Distance from station: N 17mi, 28km
Updated: May 26 2020 11:55pm
Clear
Clear
 Wind from calm
Wind: Calm
Temperature: 68°F , 20°C
Dew Point: 68°F , 20°C
Humidity: 100%
Barometer: 30.01 inHg , 1016.3 hPa
Clouds: Clear
Visibility: 10 miles , 16 km
2020/05/27 03:55 KTYQ 270355Z AUTO 00000KT 10SM CLR 20/20 A3001 RMK AO2 T02000200 402970172
KGEZ - Shelbyville, Indiana, USA
Distance from station: ESE 27mi, 43km
Updated: May 26 2020 11:53pm
Clear
Clear
 Wind from E
Wind: E 3 mph , 6 km/h
Temperature: 72°F , 22°C
Dew Point: 64°F , 18°C
Humidity: 78%
Barometer: 29.99 inHg , 1015.6 hPa
Clouds: Clear
Visibility: 10 miles , 16 km
2020/05/27 03:53 KGEZ 270353Z AUTO 09003KT 10SM CLR 22/18 A2999 RMK AO2 SLP150 T02170183
 
KAID - Anderson Municip, Indiana, USA
Distance from station: NE 40mi, 64km
Updated: May 26 2020 8:35pm
NOT Current
Clear
Clear
 Wind from SSE
Wind: SSE 5 mph , 7 km/h
Temperature: 84°F , 29°C
Heat Index: 85°F , 29°C
Dew Point: 63°F , 17°C
Humidity: 48%
Barometer: 29.99 inHg , 1015.6 hPa
Clouds: Clear
Visibility: 10 miles , 16 km
2020/05/27 00:35 KAID 270035Z AUTO 15004KT 10SM CLR 29/17 A2999 RMK AO2 T02850171
KBAK - Columbus/Balkala, Indiana, USA
Distance from station: SSE 40mi, 64km
Updated: May 26 2020 9:47pm
NOT Current
Partly Cloudy
Partly Cloudy
 Wind from S
Wind: S 6 mph , 9 km/h
Temperature: 75°F , 24°C
Dew Point: 64°F , 18°C
Humidity: 69%
Barometer: 30.00 inHg , 1015.9 hPa
Clouds: Partly Cloudy
Visibility: 10 miles , 16 km
Cloud details: Partly Cloudy 6000 ft
2020/05/27 01:47 KBAK 270147Z 17005KT 10SM SCT060 24/18 A3000 RMK LAST
 
KBMG - Bloomington, Indiana, USA
Distance from station: SSW 48mi, 78km
Updated: May 26 2020 11:53pm
Clear
Clear
 Wind from calm
Wind: Calm
Temperature: 70°F , 21°C
Dew Point: 66°F , 19°C
Humidity: 88%
Barometer: 29.99 inHg , 1015.6 hPa
Clouds: Clear
Visibility: 10 miles , 16 km
2020/05/27 03:53 KBMG 270353Z AUTO 00000KT 10SM CLR 21/19 A2999 RMK AO2 SLP146 T02110189
KOKK - Kokomo, Indiana, USA
Distance from station: N 53mi, 85km
Updated: May 26 2020 11:56pm
Partly Cloudy
Partly Cloudy
 Wind from calm
Wind: Calm
Temperature: 73°F , 23°C
Dew Point: 68°F , 20°C
Humidity: 83%
Barometer: 30.00 inHg , 1015.9 hPa
Clouds: Partly Cloudy
Visibility: 10 miles , 16 km
Cloud details: Partly Cloudy 6500 ft
2020/05/27 03:56 KOKK 270356Z AUTO 00000KT 10SM SCT065 23/20 A3000 RMK AO2 SLP153 T02330200 403170189